Time;durP1;ratioP1;P1;durP2;ratioP2;P2;SDS_P1;SDS_P2;PMS_P1;PMS_P2;Temp;Humidity;BMP_temperature;BMP_pressure;BME280_temperature;BME280_humidity;BME280_pressure;Samples;Min_cycle;Max_cycle;Signal;HPM_P1;HPM_P2
2022/05/06 00:00:11;;;;;;;6.97;2.85;;;11.00;99.90;;;;;;4996001;28;20030;-88
2022/05/06 00:02:37;;;;;;;5.72;3.08;;;10.90;99.90;;;;;;4977605;28;20022;-87
2022/05/06 00:05:04;;;;;;;6.15;3.15;;;10.90;99.90;;;;;;4995523;28;20034;-87
2022/05/06 00:07:30;;;;;;;5.43;2.78;;;10.90;99.90;;;;;;4977855;28;20105;-88
2022/05/06 00:09:56;;;;;;;6.30;3.47;;;10.80;99.90;;;;;;4977659;28;20448;-87
2022/05/06 00:12:22;;;;;;;7.05;3.45;;;10.80;99.90;;;;;;4995123;28;20069;-88
2022/05/06 00:14:48;;;;;;;6.38;3.13;;;10.70;99.90;;;;;;4977431;28;20057;-87
2022/05/06 00:17:14;;;;;;;8.00;3.45;;;10.70;99.90;;;;;;4977321;28;20121;-87
2022/05/06 00:19:42;;;;;;;6.28;3.17;;;10.70;99.90;;;;;;4977694;28;20498;-88
2022/05/06 00:22:09;;;;;;;5.55;3.00;;;10.70;99.90;;;;;;4978016;28;20109;-87
2022/05/06 00:24:35;;;;;;;5.43;2.78;;;10.60;99.90;;;;;;4978026;28;20396;-87
2022/05/06 00:27:00;;;;;;;8.57;3.22;;;10.60;99.90;;;;;;4977992;28;20022;-87
2022/05/06 00:29:26;;;;;;;8.07;3.38;;;10.60;99.90;;;;;;4985218;28;20033;-87
2022/05/06 00:31:52;;;;;;;7.15;2.88;;;10.50;99.90;;;;;;4981407;28;20118;-87
2022/05/06 00:34:18;;;;;;;6.65;3.38;;;10.50;99.90;;;;;;4978298;28;20035;-87
2022/05/06 00:36:44;;;;;;;6.60;3.08;;;10.50;99.90;;;;;;4977782;28;20026;-87
2022/05/06 00:39:10;;;;;;;10.13;3.40;;;10.50;99.90;;;;;;4977458;28;20068;-88
2022/05/06 00:41:36;;;;;;;6.03;3.15;;;10.40;99.90;;;;;;4977261;28;20031;-86
2022/05/06 00:44:06;;;;;;;6.82;3.17;;;10.40;99.90;;;;;;4977413;28;20084;-88
2022/05/06 00:46:33;;;;;;;7.32;3.08;;;10.40;99.90;;;;;;4976939;28;20030;-88
2022/05/06 00:49:00;;;;;;;5.00;3.03;;;10.40;99.90;;;;;;4977097;28;20030;-88
2022/05/06 00:51:26;;;;;;;6.97;3.10;;;10.30;99.90;;;;;;4976794;28;20031;-87
2022/05/06 00:53:55;;;;;;;5.82;2.70;;;10.20;99.90;;;;;;4994421;28;20109;-90
2022/05/06 00:56:24;;;;;;;8.48;2.85;;;10.20;99.90;;;;;;4977088;28;20041;-87
2022/05/06 00:58:52;;;;;;;8.68;2.92;;;10.20;99.90;;;;;;4976835;28;20212;-88
2022/05/06 01:01:18;;;;;;;6.13;2.72;;;10.10;99.90;;;;;;4977462;28;20033;-87
2022/05/06 01:03:44;;;;;;;6.20;3.30;;;10.10;99.90;;;;;;4977021;28;20027;-87
2022/05/06 01:06:13;;;;;;;5.00;3.00;;;10.10;99.90;;;;;;4977208;28;20084;-88
2022/05/06 01:08:39;;;;;;;6.97;3.38;;;10.10;99.90;;;;;;4977500;28;20027;-88
2022/05/06 01:11:06;;;;;;;5.00;3.22;;;10.10;99.90;;;;;;4977144;28;20029;-89
2022/05/06 01:13:44;;;;;;;7.22;3.15;;;10.10;99.90;;;;;;4977264;28;20044;-89
2022/05/06 01:16:11;;;;;;;8.23;2.70;;;10.00;99.90;;;;;;4976484;28;20072;-87
2022/05/06 01:18:37;;;;;;;5.22;2.70;;;10.00;99.90;;;;;;4994115;28;20046;-89
2022/05/06 01:21:04;;;;;;;4.90;2.92;;;10.00;99.90;;;;;;4976512;28;20018;-86
2022/05/06 01:23:31;;;;;;;7.55;3.13;;;10.00;99.90;;;;;;4976692;28;20038;-89
2022/05/06 01:25:57;;;;;;;4.13;2.63;;;10.00;99.90;;;;;;4976674;28;20030;-88
2022/05/06 01:28:25;;;;;;;6.95;2.92;;;10.00;99.90;;;;;;4977606;28;20056;-88
2022/05/06 01:30:59;;;;;;;4.45;2.75;;;10.00;99.90;;;;;;4994083;28;20077;-89
2022/05/06 01:33:26;;;;;;;6.13;2.58;;;10.00;99.90;;;;;;4976984;28;20449;-88
2022/05/06 01:35:55;;;;;;;9.55;3.25;;;10.00;99.90;;;;;;4977266;28;20045;-89
2022/05/06 01:38:37;;;;;;;5.15;2.67;;;10.00;99.90;;;;;;4976794;28;20480;-89
2022/05/06 01:41:06;;;;;;;5.25;2.40;;;10.10;99.90;;;;;;4977029;28;20124;-86
2022/05/06 01:43:43;;;;;;;6.78;2.60;;;10.10;99.90;;;;;;4976837;28;20372;-87
2022/05/06 01:46:14;;;;;;;4.72;2.65;;;10.10;99.90;;;;;;4977208;28;20041;-87
2022/05/06 01:48:42;;;;;;;6.43;2.75;;;10.10;99.90;;;;;;4977220;28;20033;-86
2022/05/06 01:51:14;;;;;;;7.28;2.95;;;10.10;99.90;;;;;;4976992;28;20066;-88
2022/05/06 01:53:41;;;;;;;7.13;3.00;;;10.10;99.90;;;;;;4977915;28;20018;-87
2022/05/06 01:56:08;;;;;;;5.35;2.65;;;10.10;99.90;;;;;;4980829;28;20030;-87
2022/05/06 01:58:34;;;;;;;7.88;3.00;;;10.10;99.90;;;;;;4980331;28;20046;-88
2022/05/06 02:01:00;;;;;;;6.28;2.78;;;10.10;99.90;;;;;;4980495;28;20109;-87
2022/05/06 02:06:11;;;;;;;7.85;3.20;;;10.10;99.90;;;;;;4997766;28;20041;-87
2022/05/06 02:08:37;;;;;;;7.28;2.85;;;10.10;99.90;;;;;;4980252;28;20038;-87
2022/05/06 02:11:05;;;;;;;6.60;2.83;;;10.10;99.90;;;;;;4997915;28;20037;-87
2022/05/06 02:13:33;;;;;;;6.07;2.53;;;10.10;99.90;;;;;;4997899;28;20065;-87
2022/05/06 02:15:59;;;;;;;7.25;2.40;;;10.10;99.90;;;;;;4981758;28;20026;-88
2022/05/06 02:18:26;;;;;;;4.60;2.47;;;10.10;99.90;;;;;;4983472;28;20037;-88
2022/05/06 02:20:56;;;;;;;6.10;2.63;;;10.10;99.90;;;;;;4984849;28;20053;-88
2022/05/06 02:23:22;;;;;;;4.18;2.50;;;10.10;99.90;;;;;;4981639;28;20038;-88
2022/05/06 02:25:48;;;;;;;4.35;3.15;;;10.10;99.90;;;;;;4980515;28;20551;-88
2022/05/06 02:28:16;;;;;;;6.53;2.85;;;10.10;99.90;;;;;;4979968;28;20062;-88
2022/05/06 02:33:27;;;;;;;7.43;3.67;;;10.10;99.90;;;;;;4997578;28;20033;-88
2022/05/06 02:35:53;;;;;;;5.38;3.10;;;10.20;99.90;;;;;;4979618;28;20076;-88
2022/05/06 02:38:20;;;;;;;9.50;3.42;;;10.20;99.90;;;;;;4979674;28;20031;-88
2022/05/06 02:40:46;;;;;;;6.35;3.10;;;10.20;99.90;;;;;;4979342;28;20471;-87
2022/05/06 02:43:11;;;;;;;4.35;2.67;;;10.10;99.90;;;;;;4979378;28;20054;-87
2022/05/06 02:45:37;;;;;;;5.88;2.83;;;10.10;99.90;;;;;;4979299;28;20053;-87
2022/05/06 02:48:03;;;;;;;5.63;2.90;;;10.10;99.90;;;;;;4979698;28;20026;-87
2022/05/06 02:50:29;;;;;;;5.35;3.20;;;10.10;99.90;;;;;;4979125;28;20054;-87
2022/05/06 02:52:55;;;;;;;8.25;2.85;;;10.10;99.90;;;;;;4979504;28;20065;-87
2022/05/06 02:55:23;;;;;;;4.57;3.03;;;10.10;99.90;;;;;;4979250;28;20026;-87
2022/05/06 02:57:49;;;;;;;3.55;2.47;;;10.10;99.90;;;;;;4978827;28;20034;-86
2022/05/06 03:00:15;;;;;;;11.88;3.08;;;10.10;99.90;;;;;;4978959;28;20120;-88
2022/05/06 03:02:41;;;;;;;6.22;2.95;;;10.10;99.90;;;;;;4978846;28;20050;-87
2022/05/06 03:05:08;;;;;;;7.80;2.90;;;10.00;99.90;;;;;;4995414;28;20030;-88
2022/05/06 03:07:34;;;;;;;5.68;2.70;;;10.00;99.90;;;;;;4978926;28;20084;-89
2022/05/06 03:10:00;;;;;;;4.78;2.58;;;10.00;99.90;;;;;;4978843;28;20548;-86
2022/05/06 03:12:26;;;;;;;6.85;2.90;;;10.00;99.90;;;;;;4996344;28;20122;-89
2022/05/06 03:14:53;;;;;;;8.57;2.78;;;10.00;99.90;;;;;;4978770;28;20038;-87
2022/05/06 03:17:19;;;;;;;4.22;2.70;;;10.00;99.90;;;;;;4978604;28;20061;-88
2022/05/06 03:19:45;;;;;;;4.63;2.72;;;10.00;99.90;;;;;;4978400;28;20540;-88
2022/05/06 03:22:11;;;;;;;5.40;2.65;;;10.00;99.90;;;;;;4978883;28;20018;-88
2022/05/06 03:24:37;;;;;;;5.57;3.45;;;10.00;99.90;;;;;;4978740;28;20026;-88
2022/05/06 03:27:03;;;;;;;4.57;2.88;;;10.00;99.90;;;;;;4995783;28;20023;-89
2022/05/06 03:29:29;;;;;;;5.28;2.97;;;10.00;99.90;;;;;;4978753;28;20038;-88
2022/05/06 03:31:56;;;;;;;6.28;2.80;;;10.00;99.90;;;;;;4978422;28;20032;-88
2022/05/06 03:34:22;;;;;;;6.07;3.08;;;9.90;99.90;;;;;;4978679;28;20487;-88
2022/05/06 03:36:47;;;;;;;6.70;3.20;;;10.00;99.90;;;;;;4995601;28;20034;-88
2022/05/06 03:39:13;;;;;;;7.07;3.15;;;10.00;99.90;;;;;;4977928;28;20127;-88
2022/05/06 03:41:39;;;;;;;6.38;3.38;;;10.00;99.90;;;;;;4978290;28;20120;-88
2022/05/06 03:44:08;;;;;;;7.15;3.13;;;9.90;99.90;;;;;;4977984;28;20038;-88
2022/05/06 03:46:34;;;;;;;6.80;2.97;;;9.90;99.90;;;;;;4978234;28;20392;-88
2022/05/06 03:49:01;;;;;;;10.25;2.83;;;9.90;99.90;;;;;;4978271;28;20034;-88
2022/05/06 03:51:28;;;;;;;4.90;2.97;;;9.90;99.90;;;;;;4987798;28;20030;-88
2022/05/06 03:53:56;;;;;;;5.25;2.80;;;9.90;99.90;;;;;;4997418;28;20113;-88
2022/05/06 03:56:22;;;;;;;3.67;2.47;;;9.90;99.90;;;;;;4997481;28;20475;-87
2022/05/06 03:58:48;;;;;;;3.83;2.53;;;9.90;99.90;;;;;;4990290;28;20062;-87
2022/05/06 04:01:16;;;;;;;9.93;3.00;;;9.90;99.90;;;;;;4976276;28;20069;-88
2022/05/06 04:03:41;;;;;;;7.05;2.55;;;9.90;99.90;;;;;;4975885;28;20098;-88
2022/05/06 04:06:07;;;;;;;4.65;2.80;;;9.90;99.90;;;;;;4976064;28;20102;-89
2022/05/06 04:08:33;;;;;;;4.93;2.90;;;9.90;99.90;;;;;;4976994;28;20506;-88
2022/05/06 04:10:59;;;;;;;7.85;3.10;;;9.90;99.90;;;;;;4976792;28;20037;-88
2022/05/06 04:13:25;;;;;;;4.25;2.47;;;9.90;99.90;;;;;;4979458;28;20033;-88
2022/05/06 04:15:51;;;;;;;6.85;3.08;;;9.90;99.90;;;;;;4984874;28;20022;-88
2022/05/06 04:18:17;;;;;;;5.72;2.65;;;9.90;99.90;;;;;;4976972;28;20676;-88
2022/05/06 04:23:30;;;;;;;5.93;3.05;;;9.80;99.90;;;;;;4991191;28;20033;-88
2022/05/06 04:26:00;;;;;;;7.00;3.08;;;9.80;99.90;;;;;;4975855;28;20065;-88
2022/05/06 04:28:27;;;;;;;4.63;2.90;;;9.80;99.90;;;;;;4975611;28;20507;-89
2022/05/06 04:30:53;;;;;;;4.57;2.60;;;9.80;99.90;;;;;;4975628;28;20278;-89
2022/05/06 04:33:20;;;;;;;4.15;2.70;;;9.80;99.90;;;;;;4981986;28;20132;-89
2022/05/06 04:35:46;;;;;;;7.93;3.20;;;9.80;99.90;;;;;;4982051;28;20026;-88
2022/05/06 04:38:12;;;;;;;6.55;3.00;;;9.80;99.90;;;;;;4986079;28;20430;-88
2022/05/06 04:40:40;;;;;;;5.65;2.80;;;9.80;99.90;;;;;;4985903;28;20054;-89
2022/05/06 04:43:06;;;;;;;5.22;3.15;;;9.80;99.90;;;;;;4999785;28;20021;-88
2022/05/06 04:45:39;;;;;;;5.95;2.80;;;9.80;99.90;;;;;;5006978;28;20032;-90
2022/05/06 04:48:06;;;;;;;5.70;3.08;;;9.80;99.90;;;;;;4985120;28;20056;-88
2022/05/06 04:50:36;;;;;;;7.05;3.33;;;9.80;99.90;;;;;;4987548;28;20022;-89
2022/05/06 04:53:05;;;;;;;8.43;4.03;;;9.90;99.90;;;;;;4984643;28;20084;-89
2022/05/06 04:55:30;;;;;;;6.18;3.58;;;9.90;99.90;;;;;;4987527;28;20025;-89
2022/05/06 04:57:56;;;;;;;8.30;3.70;;;9.90;99.90;;;;;;4987580;28;20038;-89
2022/05/06 05:00:22;;;;;;;8.60;3.75;;;9.90;99.90;;;;;;4994710;28;20026;-89
2022/05/06 05:02:48;;;;;;;8.77;3.67;;;9.90;99.90;;;;;;4977402;28;20029;-89
2022/05/06 05:05:15;;;;;;;8.88;3.20;;;9.90;99.90;;;;;;4978527;28;20026;-89
2022/05/06 05:07:41;;;;;;;7.18;3.13;;;9.90;99.90;;;;;;4982545;28;20034;-89
2022/05/06 05:10:08;;;;;;;6.75;3.40;;;9.90;99.90;;;;;;4986332;28;20027;-89
2022/05/06 05:12:35;;;;;;;5.88;2.90;;;9.90;99.90;;;;;;4987185;28;20023;-88
2022/05/06 05:15:02;;;;;;;6.32;3.35;;;9.90;99.90;;;;;;4982125;28;20108;-89
2022/05/06 05:17:28;;;;;;;9.65;2.67;;;9.90;99.90;;;;;;4983326;28;20031;-89
2022/05/06 05:19:53;;;;;;;5.53;3.05;;;9.90;99.90;;;;;;4986976;28;20038;-89
2022/05/06 05:22:19;;;;;;;6.80;2.85;;;9.90;99.90;;;;;;4978876;28;20038;-89
2022/05/06 05:24:46;;;;;;;6.70;3.20;;;9.90;99.90;;;;;;4979054;28;20072;-89
2022/05/06 05:27:19;;;;;;;7.35;3.08;;;10.00;99.90;;;;;;4979897;28;20026;-89
2022/05/06 05:29:45;;;;;;;8.75;3.65;;;10.00;99.90;;;;;;4980570;28;20038;-87
2022/05/06 05:32:11;;;;;;;7.13;3.75;;;10.00;99.90;;;;;;4999812;28;20101;-89
2022/05/06 05:34:37;;;;;;;6.00;3.33;;;10.10;99.90;;;;;;4982203;28;20018;-89
2022/05/06 05:37:03;;;;;;;10.40;3.40;;;10.10;99.90;;;;;;4982431;28;20049;-88
2022/05/06 05:39:31;;;;;;;10.93;3.13;;;10.20;99.90;;;;;;4981766;28;20682;-89
2022/05/06 05:41:57;;;;;;;7.40;3.55;;;10.10;99.90;;;;;;4981811;28;20028;-89
2022/05/06 05:49:51;;;;;;;8.70;4.00;;;10.30;99.90;;;;;;4998658;28;20193;-89
2022/05/06 05:52:16;;;;;;;9.60;3.83;;;10.30;99.90;;;;;;4980115;28;20030;-89
2022/05/06 05:54:42;;;;;;;7.88;3.33;;;10.30;99.90;;;;;;4980192;28;20547;-89
2022/05/06 05:57:08;;;;;;;8.32;3.47;;;10.40;99.90;;;;;;4980310;28;20014;-89
2022/05/06 05:59:34;;;;;;;9.15;3.40;;;10.40;99.90;;;;;;4980560;28;20106;-89
2022/05/06 06:02:03;;;;;;;8.95;3.53;;;10.40;99.90;;;;;;4980286;28;20042;-89
2022/05/06 06:04:29;;;;;;;7.45;4.05;;;10.50;99.90;;;;;;4980308;28;20035;-89
2022/05/06 06:06:55;;;;;;;7.28;4.13;;;10.50;99.90;;;;;;4985724;28;20026;-88
2022/05/06 06:09:22;;;;;;;7.22;3.65;;;10.50;99.90;;;;;;4986986;28;20022;-89
2022/05/06 06:11:49;;;;;;;6.05;3.65;;;10.50;99.90;;;;;;4981273;28;20032;-89
2022/05/06 06:14:16;;;;;;;10.70;4.00;;;10.60;99.90;;;;;;4978700;28;20114;-88
2022/05/06 06:16:42;;;;;;;9.35;4.35;;;10.70;99.90;;;;;;4974837;28;20113;-88
2022/05/06 06:19:07;;;;;;;13.25;3.70;;;10.80;99.90;;;;;;4971759;28;20059;-90
2022/05/06 06:21:33;;;;;;;7.53;3.83;;;10.80;99.90;;;;;;4976810;28;20023;-89
2022/05/06 06:23:59;;;;;;;9.88;3.97;;;10.90;99.90;;;;;;4974317;28;20530;-88
2022/05/06 06:26:25;;;;;;;8.80;4.00;;;10.90;99.90;;;;;;4969987;28;20029;-88
2022/05/06 06:28:51;;;;;;;7.28;3.92;;;11.00;99.90;;;;;;4973295;28;20041;-88
2022/05/06 06:31:16;;;;;;;6.07;3.80;;;11.10;99.90;;;;;;4971608;28;20030;-87
2022/05/06 06:33:43;;;;;;;9.23;3.45;;;11.10;99.90;;;;;;4972405;28;20468;-89
2022/05/06 06:36:09;;;;;;;8.25;4.50;;;11.20;99.90;;;;;;4973091;28;20033;-89
2022/05/06 06:38:34;;;;;;;6.50;3.70;;;11.20;99.90;;;;;;4962271;28;20228;-88
2022/05/06 06:41:00;;;;;;;8.60;3.58;;;11.30;99.90;;;;;;4973105;28;20363;-88
2022/05/06 06:43:26;;;;;;;10.18;4.22;;;11.30;99.90;;;;;;4971519;28;20023;-88
2022/05/06 06:45:56;;;;;;;7.68;3.58;;;11.40;99.90;;;;;;4972448;28;20026;-88
2022/05/06 06:48:23;;;;;;;7.53;3.83;;;11.40;99.90;;;;;;4965863;28;20481;-88
2022/05/06 06:50:49;;;;;;;7.22;3.83;;;11.50;99.90;;;;;;4960512;28;20285;-89
2022/05/06 06:53:14;;;;;;;9.65;4.53;;;11.50;99.90;;;;;;4959576;28;20038;-89
2022/05/06 06:55:40;;;;;;;10.98;4.20;;;11.60;99.90;;;;;;4960597;28;20027;-89
2022/05/06 06:58:07;;;;;;;13.90;5.38;;;11.70;99.90;;;;;;4960020;28;20077;-88
2022/05/06 07:00:33;;;;;;;11.38;4.40;;;11.70;99.90;;;;;;4960194;28;20031;-89
2022/05/06 07:02:59;;;;;;;13.88;4.68;;;11.80;99.90;;;;;;4960362;28;20418;-89
2022/05/06 07:05:24;;;;;;;12.00;4.68;;;11.90;99.90;;;;;;4975570;28;20030;-89
2022/05/06 07:13:19;;;;;;;12.23;4.50;;;12.20;99.90;;;;;;4996466;28;20033;-89
2022/05/06 07:15:44;;;;;;;9.77;4.95;;;12.30;99.90;;;;;;4979236;28;20030;-89
2022/05/06 07:18:10;;;;;;;15.57;4.75;;;12.40;99.90;;;;;;4979219;28;20526;-89
2022/05/06 07:20:36;;;;;;;8.43;4.22;;;12.50;99.90;;;;;;4979101;28;20038;-89
2022/05/06 07:23:04;;;;;;;8.70;4.88;;;12.70;99.90;;;;;;4980015;28;20117;-88
2022/05/06 07:25:30;;;;;;;11.88;5.07;;;12.80;99.90;;;;;;4979511;28;20033;-89
2022/05/06 07:27:55;;;;;;;6.55;3.92;;;12.90;99.90;;;;;;4979268;28;20018;-90
2022/05/06 07:30:21;;;;;;;16.38;4.90;;;13.00;99.90;;;;;;4979266;28;20030;-89
2022/05/06 07:32:48;;;;;;;12.20;5.20;;;13.20;99.90;;;;;;4979047;28;20022;-89
2022/05/06 07:35:14;;;;;;;9.52;4.40;;;13.30;99.90;;;;;;4979292;28;20026;-90
2022/05/06 07:37:41;;;;;;;10.65;4.68;;;13.50;99.90;;;;;;4978975;28;20037;-88
2022/05/06 07:40:11;;;;;;;11.38;5.15;;;13.60;99.90;;;;;;4979720;28;20042;-89
2022/05/06 07:42:41;;;;;;;10.85;4.95;;;13.70;99.90;;;;;;4981333;28;20044;-90
2022/05/06 07:45:07;;;;;;;10.93;4.63;;;13.80;99.90;;;;;;4981985;28;20022;-89
2022/05/06 07:47:33;;;;;;;11.05;4.78;;;13.90;99.90;;;;;;4981022;28;20045;-89
2022/05/06 07:49:59;;;;;;;10.05;4.80;;;13.90;99.90;;;;;;4991302;28;20080;-89
2022/05/06 07:52:25;;;;;;;12.23;4.75;;;13.90;99.90;;;;;;4996088;28;20030;-89
2022/05/06 07:54:50;;;;;;;8.50;4.30;;;13.90;99.90;;;;;;4979534;28;20026;-89
2022/05/06 07:57:17;;;;;;;5.93;3.47;;;14.00;99.90;;;;;;4986979;28;20472;-91
2022/05/06 07:59:43;;;;;;;5.70;3.25;;;14.10;99.90;;;;;;4995425;28;20034;-90
2022/05/06 08:04:54;;;;;;;9.48;4.00;;;14.20;99.90;;;;;;4976572;28;20081;-90
2022/05/06 08:07:20;;;;;;;6.18;3.45;;;14.20;99.90;;;;;;4980270;28;20018;-90
2022/05/06 08:09:46;;;;;;;7.07;3.63;;;14.40;99.90;;;;;;4980399;28;20030;-90
2022/05/06 08:12:13;;;;;;;8.55;4.05;;;14.50;99.90;;;;;;4978547;28;20030;-90
2022/05/06 08:14:39;;;;;;;7.82;4.45;;;14.70;99.90;;;;;;4977267;28;20161;-90
2022/05/06 08:17:05;;;;;;;6.85;3.47;;;14.80;99.90;;;;;;4977487;28;20038;-92
2022/05/06 08:19:31;;;;;;;7.18;3.80;;;14.90;99.90;;;;;;4977138;28;20041;-91
2022/05/06 08:21:57;;;;;;;11.63;4.45;;;15.00;99.90;;;;;;4976833;28;20026;-92
2022/05/06 08:24:23;;;;;;;7.40;3.88;;;15.10;99.90;;;;;;4977394;28;20030;-90
2022/05/06 08:26:49;;;;;;;11.57;3.95;;;15.30;99.90;;;;;;4977770;28;20121;-92
2022/05/06 08:29:15;;;;;;;9.65;4.13;;;15.40;99.90;;;;;;4979252;28;20042;-93
2022/05/06 08:31:41;;;;;;;9.98;4.45;;;15.50;99.90;;;;;;4979068;28;20388;-91
2022/05/06 08:34:09;;;;;;;6.22;4.15;;;15.50;99.90;;;;;;4995668;28;20027;-92
2022/05/06 08:36:36;;;;;;;7.55;3.95;;;15.60;99.90;;;;;;4978634;28;20035;-93
2022/05/06 08:39:03;;;;;;;9.90;4.32;;;15.60;99.90;;;;;;4976917;28;20038;-92
2022/05/06 08:41:29;;;;;;;5.20;3.63;;;15.70;99.90;;;;;;4975785;28;20039;-91
2022/05/06 08:43:56;;;;;;;7.05;3.65;;;15.80;99.90;;;;;;4965220;28;20033;-92
2022/05/06 08:51:55;;;;;;;9.73;4.30;;;16.20;99.90;;;;;;4976382;28;20086;-92
2022/05/06 08:54:22;;;;;;;8.73;5.18;;;16.40;99.90;;;;;;4959336;28;20038;-91
2022/05/06 08:56:49;;;;;;;8.68;4.03;;;16.50;99.90;;;;;;4962232;28;20027;-93
2022/05/06 08:59:15;;;;;;;9.30;3.88;;;16.60;99.90;;;;;;4973933;28;20067;-92
2022/05/06 09:01:41;;;;;;;8.95;4.80;;;16.70;99.90;;;;;;4958699;28;20058;-92
2022/05/06 09:04:07;;;;;;;7.07;4.07;;;16.70;99.90;;;;;;4961116;28;20066;-93
2022/05/06 09:06:34;;;;;;;10.65;4.35;;;16.80;99.90;;;;;;4962042;28;20031;-92
2022/05/06 09:09:01;;;;;;;8.80;3.50;;;16.90;99.90;;;;;;4961928;28;20031;-93
2022/05/06 09:16:39;;;;;;;7.97;3.72;;;17.30;99.90;;;;;;4984698;28;20034;-93
2022/05/06 09:17:21;;;;;;;6.32;3.50;;;17.30;99.90;;;;;;4988374;28;20038;-92
2022/05/06 09:19:47;;;;;;;6.47;3.70;;;17.50;99.20;;;;;;4940212;29;20035;-92
2022/05/06 09:22:14;;;;;;;9.15;4.30;;;17.50;98.70;;;;;;4966347;28;20492;-92
2022/05/06 09:24:52;;;;;;;11.50;4.60;;;17.50;98.50;;;;;;4962019;28;20023;-92
2022/05/06 09:27:19;;;;;;;7.00;3.80;;;17.60;98.00;;;;;;4961528;28;20033;-90
2022/05/06 09:29:50;;;;;;;8.70;3.90;;;17.60;97.70;;;;;;4972099;28;20019;-90
2022/05/06 09:32:20;;;;;;;;;;;17.70;97.60;;;;;;4968154;28;20034;-91
2022/05/06 09:35:10;;;;;;;9.33;3.23;;;17.80;97.90;;;;;;4967174;28;20417;-92
2022/05/06 09:37:43;;;;;;;5.25;3.30;;;17.90;97.20;;;;;;4969447;28;20026;-93
2022/05/06 09:40:20;;;;;;;6.65;3.45;;;17.90;97.10;;;;;;4986464;28;20085;-93
2022/05/06 09:42:57;;;;;;;5.35;3.50;;;17.80;97.10;;;;;;4977517;28;20026;-92
2022/05/06 09:45:40;;;;;;;6.93;3.17;;;17.80;97.20;;;;;;4982418;28;20034;-91
2022/05/06 09:48:08;;;;;;;5.25;3.10;;;17.70;96.90;;;;;;4982624;28;20026;-93
2022/05/06 09:50:44;;;;;;;6.97;2.85;;;17.60;96.60;;;;;;4992384;28;20168;-91
2022/05/06 09:53:12;;;;;;;7.22;3.20;;;17.60;96.60;;;;;;4986487;28;20014;-94
2022/05/06 09:55:44;;;;;;;5.82;2.83;;;17.60;96.40;;;;;;4989231;28;20033;-94
2022/05/06 09:58:11;;;;;;;8.50;3.25;;;17.60;96.60;;;;;;4997654;28;20057;-93
2022/05/06 10:00:40;;;;;;;6.30;2.95;;;17.60;96.60;;;;;;4994723;28;20022;-92
2022/05/06 10:03:08;;;;;;;5.85;2.67;;;17.50;96.20;;;;;;4993447;28;20026;-94
2022/05/06 10:05:36;;;;;;;3.85;2.90;;;17.50;96.20;;;;;;4998221;28;20037;-93
2022/05/06 10:08:15;;;;;;;5.60;3.10;;;17.50;96.20;;;;;;4998513;28;20030;-92
2022/05/06 10:10:47;;;;;;;5.35;2.80;;;17.50;96.50;;;;;;4996452;28;20022;-92
2022/05/06 10:13:18;;;;;;;4.57;2.70;;;17.50;96.70;;;;;;4981776;28;20059;-91
2022/05/06 10:15:49;;;;;;;5.07;2.80;;;17.40;96.70;;;;;;4990673;28;20033;-94
2022/05/06 10:18:30;;;;;;;5.10;3.10;;;17.30;96.60;;;;;;4988645;28;20129;-92
2022/05/06 10:20:56;;;;;;;5.82;2.80;;;17.30;96.70;;;;;;4991669;28;20432;-93
2022/05/06 10:23:24;;;;;;;6.07;2.60;;;17.30;96.90;;;;;;4984991;28;20022;-92
2022/05/06 10:25:52;;;;;;;5.78;2.90;;;17.20;97.00;;;;;;4983719;28;20053;-93
2022/05/06 10:34:23;;;;;;;4.03;2.97;;;17.20;97.20;;;;;;4963054;28;20119;-92
2022/05/06 10:36:53;;;;;;;4.70;2.53;;;17.10;97.20;;;;;;4985318;28;20052;-91
2022/05/06 10:39:23;;;;;;;;;;;17.10;97.30;;;;;;4981244;28;20034;-95
2022/05/06 10:41:59;;;;;;;7.20;2.90;;;17.10;97.50;;;;;;4980810;28;19921;-92
2022/05/06 10:44:36;;;;;;;7.00;3.20;;;17.10;97.60;;;;;;4979694;28;20038;-93
2022/05/06 10:47:23;;;;;;;7.13;3.33;;;17.00;97.60;;;;;;4981488;28;20042;-91
2022/05/06 10:49:50;;;;;;;5.93;2.83;;;17.00;97.90;;;;;;4983408;28;20080;-92
2022/05/06 10:52:24;;;;;;;8.75;3.15;;;16.90;98.10;;;;;;4980513;28;20041;-92
2022/05/06 10:54:55;;;;;;;6.85;2.72;;;16.80;98.30;;;;;;4979838;28;20026;-92
2022/05/06 10:57:25;;;;;;;6.28;3.22;;;16.70;98.70;;;;;;4979653;28;20022;-91
2022/05/06 11:00:02;;;;;;;7.10;2.67;;;16.70;98.90;;;;;;4979316;28;20034;-92
2022/05/06 11:02:30;;;;;;;6.22;3.28;;;16.80;99.20;;;;;;4979472;28;20093;-92
2022/05/06 11:04:57;;;;;;;6.47;2.80;;;16.90;99.40;;;;;;4980296;28;20030;-90
2022/05/06 11:07:24;;;;;;;6.15;2.65;;;17.10;99.40;;;;;;4980773;28;20019;-91
2022/05/06 11:09:53;;;;;;;5.32;2.50;;;17.20;99.30;;;;;;4982585;28;20476;-92
2022/05/06 11:12:43;;;;;;;5.50;2.80;;;17.20;99.20;;;;;;4979181;28;20022;-89
2022/05/06 11:15:13;;;;;;;5.57;2.47;;;17.30;99.10;;;;;;4964977;28;20051;-91
2022/05/06 11:23:29;;;;;;;6.88;2.88;;;17.10;98.90;;;;;;4995645;28;20117;-90
2022/05/06 11:25:55;;;;;;;7.60;2.83;;;17.10;99.10;;;;;;4991091;28;20054;-91
2022/05/06 11:28:24;;;;;;;4.65;2.95;;;17.00;99.30;;;;;;4978400;28;20085;-90
2022/05/06 11:30:52;;;;;;;7.65;2.92;;;17.00;99.50;;;;;;4978267;28;20022;-91
2022/05/06 11:33:24;;;;;;;3.78;2.67;;;16.90;99.60;;;;;;4979520;28;20063;-89
2022/05/06 11:35:53;;;;;;;4.25;2.50;;;16.80;99.90;;;;;;4978324;28;20021;-92
2022/05/06 11:38:46;;;;;;;4.83;2.40;;;16.70;99.90;;;;;;4977433;28;20462;-91
2022/05/06 11:41:17;;;;;;;4.05;2.30;;;16.60;99.90;;;;;;4987320;28;20034;-91
2022/05/06 11:43:47;;;;;;;7.45;2.58;;;16.60;99.90;;;;;;4988566;28;20621;-90
2022/05/06 11:49:21;;;;;;;11.07;3.10;;;16.50;99.90;;;;;;4979440;28;20420;-93
2022/05/06 11:51:54;;;;;;;4.90;3.10;;;16.50;99.90;;;;;;4969216;28;20081;-93
2022/05/06 11:54:20;;;;;;;7.82;3.35;;;16.50;99.90;;;;;;4962631;28;20031;-92
2022/05/06 11:56:47;;;;;;;10.88;3.20;;;16.50;99.90;;;;;;4973325;28;20496;-89
2022/05/06 11:59:13;;;;;;;5.68;2.60;;;16.50;99.90;;;;;;4959880;28;20061;-90
2022/05/06 12:01:42;;;;;;;5.30;2.17;;;16.60;99.90;;;;;;4965294;28;20476;-90
2022/05/06 12:04:11;;;;;;;5.43;2.42;;;16.60;99.90;;;;;;4974290;28;20065;-91
2022/05/06 12:07:03;;;;;;;4.82;2.15;;;16.60;99.90;;;;;;4962073;28;20030;-91
2022/05/06 12:09:29;;;;;;;6.15;2.53;;;16.70;99.90;;;;;;4959659;28;20459;-90
2022/05/06 12:12:02;;;;;;;4.53;2.42;;;16.70;99.90;;;;;;4952496;28;20107;-90
2022/05/06 12:14:30;;;;;;;4.53;1.90;;;16.80;99.90;;;;;;4942376;28;20494;-92
2022/05/06 12:17:13;;;;;;;3.33;1.70;;;16.80;99.90;;;;;;4957713;28;20038;-90
2022/05/06 12:19:41;;;;;;;5.03;1.88;;;16.90;99.60;;;;;;4958670;28;20068;-90
2022/05/06 12:22:13;;;;;;;3.47;1.83;;;16.90;99.20;;;;;;4958724;28;20147;-92
2022/05/06 12:24:50;;;;;;;6.38;1.50;;;16.80;98.80;;;;;;4960666;28;20042;-92
2022/05/06 12:27:30;;;;;;;2.72;1.92;;;16.80;98.60;;;;;;4958293;28;20026;-94
2022/05/06 12:29:58;;;;;;;7.43;2.37;;;16.80;98.60;;;;;;4958195;28;20022;-90
2022/05/06 12:32:24;;;;;;;5.97;1.42;;;16.70;98.40;;;;;;4957279;28;20031;-89
2022/05/06 12:35:08;;;;;;;3.17;1.80;;;16.70;98.30;;;;;;4957621;28;20440;-90
2022/05/06 12:37:35;;;;;;;5.68;1.75;;;16.70;98.40;;;;;;4957670;28;20043;-89
2022/05/06 12:40:02;;;;;;;5.68;1.70;;;16.60;98.40;;;;;;4957745;28;20034;-91
2022/05/06 12:42:27;;;;;;;4.05;1.70;;;16.60;98.20;;;;;;4957871;28;20031;-92
2022/05/06 12:44:53;;;;;;;3.10;1.58;;;16.50;98.00;;;;;;4957903;28;20090;-90
2022/05/06 12:50:09;;;;;;;4.45;1.70;;;16.40;98.50;;;;;;4975943;28;20435;-90
2022/05/06 12:52:36;;;;;;;5.80;1.90;;;16.40;98.80;;;;;;4958537;28;20381;-91
2022/05/06 12:55:06;;;;;;;4.78;1.83;;;16.30;99.00;;;;;;4957944;28;20031;-91
2022/05/06 12:57:32;;;;;;;3.13;1.88;;;16.30;99.20;;;;;;4958443;28;20018;-89
2022/05/06 12:59:58;;;;;;;3.92;1.67;;;16.40;99.40;;;;;;4957713;28;20046;-89
2022/05/06 13:02:24;;;;;;;4.00;1.80;;;16.40;99.50;;;;;;4958019;28;20029;-92
2022/05/06 13:04:49;;;;;;;4.20;2.03;;;16.40;99.40;;;;;;4958001;28;20034;-91
2022/05/06 13:07:16;;;;;;;5.75;2.42;;;16.40;99.40;;;;;;4957999;28;20081;-90
2022/05/06 13:09:41;;;;;;;7.25;1.67;;;16.30;99.60;;;;;;4957828;28;20081;-91
2022/05/06 13:12:09;;;;;;;3.85;1.70;;;16.30;99.80;;;;;;4960790;28;20431;-90
2022/05/06 13:14:35;;;;;;;4.00;1.80;;;16.20;99.90;;;;;;4977020;28;20026;-89
2022/05/06 13:17:01;;;;;;;3.70;1.52;;;16.20;99.90;;;;;;4976893;28;20125;-92
2022/05/06 13:19:29;;;;;;;5.57;1.58;;;16.20;99.90;;;;;;4966328;28;20126;-90
2022/05/06 13:21:55;;;;;;;4.18;1.60;;;16.20;99.90;;;;;;4967206;28;20046;-90
2022/05/06 13:24:22;;;;;;;4.65;1.50;;;16.30;99.90;;;;;;4965551;28;20045;-91
2022/05/06 13:26:48;;;;;;;2.90;1.10;;;16.30;99.90;;;;;;4968048;28;20034;-91
2022/05/06 13:29:13;;;;;;;1.67;1.05;;;16.30;99.90;;;;;;4966324;28;21200;-91
2022/05/06 13:31:39;;;;;;;5.07;0.90;;;16.40;99.90;;;;;;4972327;28;20081;-90
2022/05/06 13:34:05;;;;;;;2.40;1.10;;;16.50;99.90;;;;;;4984004;28;20053;-90
2022/05/06 13:36:31;;;;;;;3.05;1.20;;;16.70;99.90;;;;;;4978387;28;20019;-88
2022/05/06 13:38:59;;;;;;;1.75;0.90;;;16.80;99.90;;;;;;4977331;28;20042;-89